createdAt,value
2017-10-29T00:00:03.128Z,12.92
2017-10-29T00:01:03.096Z,12.84
2017-10-29T00:02:03.076Z,12.89
2017-10-29T00:03:03.047Z,12.88
2017-10-29T00:04:03.036Z,12.88
2017-10-29T00:05:03.006Z,12.84
2017-10-29T00:06:02.985Z,12.79
2017-10-29T00:07:02.958Z,12.89
2017-10-29T00:08:02.939Z,12.77
2017-10-29T00:09:02.916Z,12.88
2017-10-29T00:10:02.892Z,12.89
2017-10-29T00:11:02.864Z,12.89
2017-10-29T00:12:02.851Z,12.74
2017-10-29T00:13:02.833Z,12.73
2017-10-29T00:14:02.801Z,12.87
2017-10-29T00:15:02.780Z,12.92
2017-10-29T00:16:02.433Z,12.85
2017-10-29T00:17:02.735Z,12.76
2017-10-29T00:18:02.711Z,12.8
2017-10-29T00:19:02.686Z,12.8
2017-10-29T00:20:02.659Z,12.77
2017-10-29T00:21:02.637Z,12.76
2017-10-29T00:22:02.618Z,12.8
2017-10-29T00:23:02.587Z,12.84
2017-10-29T00:24:02.566Z,12.8
2017-10-29T00:25:02.546Z,12.77
2017-10-29T00:26:02.516Z,12.77
2017-10-29T00:27:02.497Z,12.79
2017-10-29T00:28:02.476Z,12.77
2017-10-29T00:29:02.451Z,12.81
2017-10-29T00:30:02.423Z,12.79
2017-10-29T00:31:02.411Z,12.81
2017-10-29T00:32:02.387Z,12.69
2017-10-29T00:33:02.041Z,12.73
2017-10-29T00:34:02.349Z,12.84
2017-10-29T00:35:02.313Z,12.71
2017-10-29T00:36:02.314Z,12.87
2017-10-29T00:37:02.264Z,12.85
2017-10-29T00:38:02.255Z,12.77
2017-10-29T00:39:02.229Z,12.81
2017-10-29T00:40:02.210Z,12.8
2017-10-29T00:41:02.180Z,12.76
2017-10-29T00:42:02.166Z,12.79
2017-10-29T00:43:01.808Z,12.79
2017-10-29T00:44:02.120Z,12.79
2017-10-29T00:45:02.107Z,12.84
2017-10-29T00:46:01.753Z,12.79
2017-10-29T00:47:02.035Z,12.84
2017-10-29T00:48:02.014Z,12.77
2017-10-29T00:49:02.042Z,12.79
2017-10-29T00:50:01.977Z,12.76
2017-10-29T00:51:01.942Z,12.81
2017-10-29T00:52:01.605Z,12.74
2017-10-29T00:53:01.589Z,12.79
2017-10-29T00:54:01.883Z,12.79
2017-10-29T00:55:01.857Z,12.76
2017-10-29T00:56:01.826Z,12.76
2017-10-29T00:57:01.817Z,12.74
2017-10-29T00:58:01.789Z,12.63
2017-10-29T00:59:02.112Z,12.71
2017-10-29T01:00:01.736Z,12.69
2017-10-29T01:01:01.719Z,12.66
2017-10-29T01:02:01.693Z,12.66
2017-10-29T01:03:01.671Z,12.63
2017-10-29T01:04:01.645Z,12.59
2017-10-29T01:05:01.623Z,12.62
2017-10-29T01:06:01.281Z,12.59
2017-10-29T01:07:01.576Z,12.54
2017-10-29T01:08:01.550Z,12.58
2017-10-29T01:09:01.875Z,12.55
2017-10-29T01:10:01.512Z,12.52
2017-10-29T01:11:01.843Z,12.56
2017-10-29T01:12:01.464Z,12.46
2017-10-29T01:13:01.116Z,12.49
2017-10-29T01:14:01.450Z,12.41
2017-10-29T01:15:01.389Z,12.44
2017-10-29T01:16:01.370Z,12.43
2017-10-29T01:17:01.342Z,12.4
2017-10-29T01:18:01.327Z,12.38
2017-10-29T01:19:00.995Z,12.38
2017-10-29T01:20:01.268Z,12.34
2017-10-29T01:21:01.251Z,12.37
2017-10-29T01:22:01.225Z,12.34
2017-10-29T01:23:01.212Z,12.31
2017-10-29T01:24:01.185Z,12.38
2017-10-29T01:25:01.158Z,12.33
2017-10-29T01:26:01.136Z,12.34
2017-10-29T01:27:01.127Z,12.41
2017-10-29T01:28:00.779Z,12.38
2017-10-29T01:29:01.073Z,12.34
2017-10-29T01:30:01.038Z,12.34
2017-10-29T01:31:01.016Z,12.37
2017-10-29T01:32:00.997Z,12.4
2017-10-29T01:33:00.975Z,12.31
2017-10-29T01:34:00.950Z,12.31
2017-10-29T01:35:00.929Z,12.33
2017-10-29T01:36:00.903Z,12.37
2017-10-29T01:37:00.880Z,12.36
2017-10-29T01:38:00.887Z,12.34
2017-10-29T01:39:00.830Z,12.34
2017-10-29T01:40:00.824Z,12.37
2017-10-29T01:41:00.472Z,12.46
2017-10-29T01:42:00.774Z,12.41
2017-10-29T01:43:00.745Z,12.41
2017-10-29T01:44:00.724Z,12.41
2017-10-29T01:45:00.695Z,12.46
2017-10-29T01:46:00.678Z,12.44
2017-10-29T01:47:00.652Z,12.52
2017-10-29T01:48:00.629Z,12.46
2017-10-29T01:49:00.608Z,12.46
2017-10-29T01:50:00.579Z,12.59
2017-10-29T01:51:00.552Z,12.55
2017-10-29T01:52:00.537Z,12.52
2017-10-29T01:53:00.717Z,12.55
2017-10-29T01:54:00.488Z,12.51
2017-10-29T01:55:00.149Z,12.44
2017-10-29T01:56:00.449Z,12.58
2017-10-29T01:57:00.417Z,12.48
2017-10-29T01:58:00.395Z,12.48
2017-10-29T01:59:00.052Z,12.52
2017-10-29T02:00:00.349Z,12.52
2017-10-29T02:01:00.324Z,12.58
2017-10-29T02:02:00.295Z,12.52
2017-10-29T02:03:00.278Z,12.49
2017-10-29T02:04:00.258Z,12.55
2017-10-29T02:05:00.230Z,12.46
2017-10-29T02:06:00.209Z,12.44
2017-10-29T02:07:00.538Z,12.41
2017-10-29T02:07:59.837Z,12.38
2017-10-29T02:09:00.154Z,12.37
2017-10-29T02:09:59.795Z,12.34
2017-10-29T02:11:00.095Z,12.29
2017-10-29T02:12:00.071Z,12.36
2017-10-29T02:13:00.051Z,12.33
2017-10-29T02:14:00.027Z,12.21
2017-10-29T02:14:59.998Z,12.19
2017-10-29T02:15:59.979Z,12.21
2017-10-29T02:16:59.964Z,12.16
2017-10-29T02:17:59.934Z,12.12
2017-10-29T02:18:59.925Z,12.15
2017-10-29T02:19:59.886Z,12.11
2017-10-29T02:20:59.857Z,12.04
2017-10-29T02:21:59.839Z,12.07
2017-10-29T02:22:59.816Z,12.01
2017-10-29T02:23:59.802Z,11.98
2017-10-29T02:24:59.766Z,11.98
2017-10-29T02:25:59.747Z,11.9
2017-10-29T02:26:59.721Z,11.96
2017-10-29T02:27:59.698Z,11.98
2017-10-29T02:28:59.674Z,11.93
2017-10-29T02:29:59.645Z,11.96
2017-10-29T02:30:59.627Z,12
2017-10-29T02:31:59.604Z,11.9
2017-10-29T02:32:59.267Z,11.93
2017-10-29T02:33:59.568Z,11.87
2017-10-29T02:34:59.536Z,11.93
2017-10-29T02:35:59.517Z,11.93
2017-10-29T02:36:59.489Z,11.97
2017-10-29T02:37:59.502Z,11.96
2017-10-29T02:38:59.451Z,11.93
2017-10-29T02:39:59.418Z,11.9
2017-10-29T02:40:59.400Z,11.94
2017-10-29T02:41:59.055Z,11.87
2017-10-29T02:42:59.350Z,11.85
2017-10-29T02:43:59.330Z,11.84
2017-10-29T02:44:59.305Z,11.82
2017-10-29T02:45:59.282Z,11.79
2017-10-29T02:46:59.245Z,11.67
2017-10-29T02:47:59.244Z,11.82
2017-10-29T02:48:59.212Z,11.75
2017-10-29T02:49:59.182Z,11.69
2017-10-29T02:50:59.163Z,11.69
2017-10-29T02:51:59.136Z,11.66
2017-10-29T02:52:59.122Z,11.6
2017-10-29T02:53:59.105Z,11.56
2017-10-29T02:54:59.066Z,11.62
2017-10-29T02:55:59.072Z,11.59
2017-10-29T02:56:59.032Z,11.54
2017-10-29T02:57:59.005Z,11.54
2017-10-29T02:58:58.978Z,11.51
2017-10-29T02:59:58.952Z,11.51
2017-10-29T03:00:58.940Z,11.54
2017-10-29T03:01:58.899Z,11.51
2017-10-29T03:02:58.882Z,11.53
2017-10-29T03:03:58.857Z,11.54
2017-10-29T03:04:58.841Z,11.48
2017-10-29T03:05:58.821Z,11.54
2017-10-29T03:06:58.784Z,11.54
2017-10-29T03:07:58.766Z,11.46
2017-10-29T03:08:58.738Z,11.56
2017-10-29T03:09:58.716Z,11.64
2017-10-29T03:10:58.695Z,11.6
2017-10-29T03:11:58.702Z,11.54
2017-10-29T03:12:58.648Z,11.69
2017-10-29T03:13:58.624Z,11.63
2017-10-29T03:14:58.599Z,11.57
2017-10-29T03:15:58.576Z,11.62
2017-10-29T03:16:58.557Z,11.6
2017-10-29T03:17:58.527Z,11.62
2017-10-29T03:18:58.526Z,11.45
2017-10-29T03:19:58.479Z,11.44
2017-10-29T03:20:58.469Z,11.35
2017-10-29T03:21:58.435Z,11.3
2017-10-29T03:22:58.417Z,11.26
2017-10-29T03:23:58.391Z,11.06
2017-10-29T03:24:58.366Z,11.03
2017-10-29T03:25:58.024Z,10.99
2017-10-29T03:26:58.326Z,10.88
2017-10-29T03:27:58.298Z,10.75
2017-10-29T03:28:58.274Z,10.75
2017-10-29T03:29:58.248Z,10.69
2017-10-29T03:30:58.236Z,10.55
2017-10-29T03:31:58.218Z,10.68
2017-10-29T03:32:58.171Z,10.63
2017-10-29T03:33:58.158Z,10.63
2017-10-29T03:34:58.127Z,10.62
2017-10-29T03:35:58.109Z,10.57
2017-10-29T03:36:58.079Z,10.6
2017-10-29T03:37:58.064Z,10.52
2017-10-29T03:38:58.046Z,10.51
2017-10-29T03:39:58.009Z,10.51
2017-10-29T03:40:57.983Z,10.44
2017-10-29T03:41:57.646Z,10.51
2017-10-29T03:42:57.948Z,10.47
2017-10-29T03:43:57.924Z,10.47
2017-10-29T03:44:57.895Z,10.43
2017-10-29T03:45:57.882Z,10.39
2017-10-29T03:46:57.847Z,10.43
2017-10-29T03:47:57.503Z,10.38
2017-10-29T03:48:57.802Z,10.49
2017-10-29T03:49:57.798Z,10.42
2017-10-29T03:50:57.432Z,10.34
2017-10-29T03:51:57.737Z,10.44
2017-10-29T03:52:57.704Z,10.44
2017-10-29T03:53:57.680Z,10.51
2017-10-29T03:54:57.662Z,10.43
2017-10-29T03:55:57.634Z,10.43
2017-10-29T03:56:57.611Z,10.44
2017-10-29T03:57:57.593Z,10.47
2017-10-29T03:58:57.566Z,10.44
2017-10-29T03:59:57.539Z,10.35
2017-10-29T04:00:57.519Z,10.34
2017-10-29T04:01:57.500Z,10.43
2017-10-29T04:02:57.470Z,10.43
2017-10-29T04:03:57.441Z,10.42
2017-10-29T04:04:57.424Z,10.31
2017-10-29T04:05:57.410Z,10.28
2017-10-29T04:06:57.367Z,10.26
2017-10-29T04:07:57.349Z,10.31
2017-10-29T04:08:57.330Z,10.24
2017-10-29T04:09:57.308Z,10.25
2017-10-29T04:10:57.277Z,10.2
2017-10-29T04:11:57.254Z,10.17
2017-10-29T04:12:57.234Z,10.18
2017-10-29T04:13:57.219Z,10.13
2017-10-29T04:14:57.190Z,10.11
2017-10-29T04:15:57.156Z,10.13
2017-10-29T04:16:57.139Z,10.07
2017-10-29T04:17:57.104Z,10.11
2017-10-29T04:18:57.088Z,10.1
2017-10-29T04:19:57.060Z,10.09
2017-10-29T04:20:57.046Z,10.09
2017-10-29T04:21:57.015Z,10.14
2017-10-29T04:22:56.988Z,10.06
2017-10-29T04:23:56.647Z,10.07
2017-10-29T04:24:56.941Z,10.1
2017-10-29T04:25:56.605Z,10.14
2017-10-29T04:26:56.903Z,10.11
2017-10-29T04:27:56.865Z,10.09
2017-10-29T04:28:56.848Z,10.07
2017-10-29T04:29:56.822Z,10.11
2017-10-29T04:30:56.804Z,10.1
2017-10-29T04:31:56.777Z,10.11
2017-10-29T04:32:56.748Z,10.18
2017-10-29T04:33:56.749Z,10.2
2017-10-29T04:34:56.721Z,10.18
2017-10-29T04:35:57.030Z,10.2
2017-10-29T04:36:56.652Z,10.14
2017-10-29T04:37:56.670Z,10.2
2017-10-29T04:38:56.609Z,10.18
2017-10-29T04:39:56.585Z,10.22
2017-10-29T04:40:56.562Z,10.17
2017-10-29T04:41:56.531Z,10.28
2017-10-29T04:42:56.517Z,10.25
2017-10-29T04:43:56.491Z,10.28
2017-10-29T04:44:56.465Z,10.26
2017-10-29T04:45:56.449Z,10.24
2017-10-29T04:46:56.430Z,10.25
2017-10-29T04:47:56.396Z,10.29
2017-10-29T04:48:56.373Z,10.24
2017-10-29T04:49:56.350Z,10.26
2017-10-29T04:50:56.320Z,10.24
2017-10-29T04:51:56.303Z,10.18
2017-10-29T04:52:56.279Z,10.17
2017-10-29T04:53:56.252Z,10.11
2017-10-29T04:54:56.238Z,10.07
2017-10-29T04:55:56.205Z,10.07
2017-10-29T04:56:56.188Z,9.92
2017-10-29T04:57:56.162Z,9.92
2017-10-29T04:58:56.136Z,9.92
2017-10-29T04:59:56.112Z,9.96
2017-10-29T05:00:56.088Z,9.98
2017-10-29T05:01:56.076Z,9.88
2017-10-29T05:02:55.730Z,9.95
2017-10-29T05:03:55.696Z,9.86
2017-10-29T05:04:55.992Z,9.89
2017-10-29T05:05:55.978Z,9.81
2017-10-29T05:06:55.625Z,9.85
2017-10-29T05:07:55.939Z,9.91
2017-10-29T05:08:55.900Z,9.88
2017-10-29T05:09:55.876Z,9.83
2017-10-29T05:10:55.850Z,9.86
2017-10-29T05:11:55.830Z,9.83
2017-10-29T05:12:55.805Z,9.92
2017-10-29T05:13:55.784Z,9.85
2017-10-29T05:14:55.762Z,9.86
2017-10-29T05:15:55.743Z,9.8
2017-10-29T05:16:55.708Z,9.8
2017-10-29T05:17:55.688Z,9.78
2017-10-29T05:18:55.657Z,9.8
2017-10-29T05:19:55.639Z,9.83
2017-10-29T05:20:55.614Z,9.8
2017-10-29T05:21:55.594Z,9.8
2017-10-29T05:22:55.569Z,9.75
2017-10-29T05:23:55.547Z,9.73
2017-10-29T05:24:55.523Z,9.73
2017-10-29T05:25:55.504Z,9.73
2017-10-29T05:26:55.478Z,9.67
2017-10-29T05:27:55.450Z,9.67
2017-10-29T05:28:55.427Z,9.67
2017-10-29T05:29:55.083Z,9.65
2017-10-29T05:30:55.389Z,9.65
2017-10-29T05:31:55.363Z,9.6
2017-10-29T05:32:55.340Z,9.53
2017-10-29T05:33:55.306Z,9.5
2017-10-29T05:34:55.289Z,9.45
2017-10-29T05:35:55.261Z,9.45
2017-10-29T05:36:55.245Z,9.45
2017-10-29T05:37:55.255Z,9.37
2017-10-29T05:38:54.866Z,9.32
2017-10-29T05:39:55.165Z,9.48
2017-10-29T05:40:54.822Z,9.37
2017-10-29T05:41:55.119Z,9.35
2017-10-29T05:42:55.092Z,9.26
2017-10-29T05:43:55.080Z,9.26
2017-10-29T05:44:55.050Z,9.26
2017-10-29T05:45:54.696Z,9.3
2017-10-29T05:46:55.001Z,9.2
2017-10-29T05:47:54.986Z,9.22
2017-10-29T05:48:54.629Z,9.19
2017-10-29T05:49:54.931Z,9.15
2017-10-29T05:50:54.904Z,9.17
2017-10-29T05:51:54.874Z,9.12
2017-10-29T05:52:54.541Z,9.12
2017-10-29T05:53:54.515Z,9.03
2017-10-29T05:54:54.808Z,9.01
2017-10-29T05:55:54.464Z,9.04
2017-10-29T05:56:54.752Z,9.01
2017-10-29T05:57:54.742Z,9
2017-10-29T05:58:54.722Z,8.98
2017-10-29T05:59:54.684Z,8.89
2017-10-29T06:00:54.675Z,9.01
2017-10-29T06:01:54.650Z,8.94
2017-10-29T06:02:54.624Z,8.94
2017-10-29T06:03:54.595Z,8.94
2017-10-29T06:04:54.568Z,8.86
2017-10-29T06:05:54.548Z,8.85
2017-10-29T06:06:54.526Z,8.78
2017-10-29T06:07:54.494Z,8.83
2017-10-29T06:08:54.480Z,8.75
2017-10-29T06:09:54.466Z,8.82
2017-10-29T06:10:54.799Z,8.71
2017-10-29T06:11:54.404Z,8.8
2017-10-29T06:12:54.370Z,8.65
2017-10-29T06:13:54.354Z,8.67
2017-10-29T06:14:54.015Z,8.65
2017-10-29T06:15:54.307Z,8.65
2017-10-29T06:16:54.278Z,8.68
2017-10-29T06:17:54.256Z,8.71
2017-10-29T06:18:54.238Z,8.67
2017-10-29T06:19:54.203Z,8.64
2017-10-29T06:20:54.182Z,8.63
2017-10-29T06:21:53.836Z,8.64
2017-10-29T06:22:53.814Z,8.63
2017-10-29T06:23:54.118Z,8.64
2017-10-29T06:24:54.085Z,8.6
2017-10-29T06:25:54.069Z,8.5
2017-10-29T06:26:54.041Z,8.6
2017-10-29T06:27:54.011Z,8.52
2017-10-29T06:28:54.001Z,8.58
2017-10-29T06:29:53.649Z,8.61
2017-10-29T06:30:53.626Z,8.61
2017-10-29T06:31:53.928Z,8.47
2017-10-29T06:32:53.588Z,8.54
2017-10-29T06:33:53.871Z,8.63
2017-10-29T06:34:53.847Z,8.63
2017-10-29T06:35:53.506Z,8.65
2017-10-29T06:36:53.496Z,8.71
2017-10-29T06:37:53.773Z,8.57
2017-10-29T06:38:53.756Z,8.7
2017-10-29T06:39:53.731Z,8.68
2017-10-29T06:40:53.696Z,8.67
2017-10-29T06:41:53.357Z,8.64
2017-10-29T06:42:53.649Z,8.61
2017-10-29T06:43:53.635Z,8.67
2017-10-29T06:44:53.606Z,8.64
2017-10-29T06:45:53.584Z,8.7
2017-10-29T06:46:53.551Z,8.7
2017-10-29T06:47:53.550Z,8.79
2017-10-29T06:48:53.514Z,8.8
2017-10-29T06:49:53.486Z,8.83
2017-10-29T06:50:53.467Z,8.96
2017-10-29T06:51:53.434Z,8.91
2017-10-29T06:52:53.418Z,9.01
2017-10-29T06:53:53.386Z,8.93
2017-10-29T06:54:53.379Z,9.1
2017-10-29T06:55:53.028Z,9.04
2017-10-29T06:56:53.005Z,9.26
2017-10-29T06:57:53.300Z,9.22
2017-10-29T06:58:52.941Z,9.32
2017-10-29T06:59:53.251Z,9.31
2017-10-29T07:00:53.220Z,9.44
2017-10-29T07:01:53.203Z,9.63
2017-10-29T07:02:53.174Z,9.77
2017-10-29T07:03:52.831Z,10.06
2017-10-29T07:04:53.129Z,10.07
2017-10-29T07:05:53.128Z,10.25
2017-10-29T07:06:53.118Z,10.38
2017-10-29T07:07:53.062Z,10.52
2017-10-29T07:08:53.031Z,10.57
2017-10-29T07:09:53.034Z,10.47
2017-10-29T07:10:52.990Z,10.52
2017-10-29T07:11:52.978Z,10.44
2017-10-29T07:12:52.949Z,10.49
2017-10-29T07:13:52.924Z,10.44
2017-10-29T07:14:52.577Z,10.44
2017-10-29T07:15:52.870Z,10.42
2017-10-29T07:16:52.844Z,10.42
2017-10-29T07:17:52.825Z,10.36
2017-10-29T07:18:52.809Z,10.35
2017-10-29T07:19:52.782Z,10.35
2017-10-29T07:20:52.764Z,10.36
2017-10-29T07:21:52.732Z,10.36
2017-10-29T07:22:52.384Z,10.35
2017-10-29T07:23:52.675Z,10.39
2017-10-29T07:24:52.658Z,10.46
2017-10-29T07:25:52.637Z,10.51
2017-10-29T07:26:52.284Z,10.6
2017-10-29T07:27:52.581Z,10.86
2017-10-29T07:28:52.560Z,10.94
2017-10-29T07:29:52.540Z,11.01
2017-10-29T07:30:52.512Z,11.01
2017-10-29T07:31:52.501Z,11.26
2017-10-29T07:32:52.145Z,11.31
2017-10-29T07:33:52.448Z,11.48
2017-10-29T07:34:52.422Z,11.57
2017-10-29T07:35:52.408Z,11.75
2017-10-29T07:36:52.376Z,11.88
2017-10-29T07:37:52.367Z,12.13
2017-10-29T07:38:52.328Z,12.25
2017-10-29T07:39:52.312Z,12.18
2017-10-29T07:40:52.287Z,12.12
2017-10-29T07:41:52.265Z,11.77
2017-10-29T07:42:52.234Z,11.59
2017-10-29T07:43:52.227Z,11.36
2017-10-29T07:44:52.191Z,11.35
2017-10-29T07:45:52.209Z,11.41
2017-10-29T07:46:52.152Z,11.44
2017-10-29T07:47:51.797Z,11.51
2017-10-29T07:48:52.114Z,11.56
2017-10-29T07:49:52.079Z,11.69
2017-10-29T07:50:52.053Z,11.84
2017-10-29T07:51:52.032Z,12.07
2017-10-29T07:52:52.011Z,12.33
2017-10-29T07:53:51.986Z,12.19
2017-10-29T07:54:51.968Z,12.16
2017-10-29T07:55:51.947Z,12.16
2017-10-29T07:56:51.938Z,12.16
2017-10-29T07:57:51.894Z,12.19
2017-10-29T07:58:51.886Z,12.23
2017-10-29T07:59:51.846Z,12.41
2017-10-29T08:00:51.825Z,12.4
2017-10-29T08:01:51.808Z,12.51
2017-10-29T08:02:51.788Z,12.62
2017-10-29T08:03:51.760Z,12.76
2017-10-29T08:04:51.758Z,12.92
2017-10-29T08:05:51.717Z,13.03
2017-10-29T08:06:51.374Z,13.09
2017-10-29T08:07:51.674Z,13.14
2017-10-29T08:08:51.652Z,13.19
2017-10-29T08:09:51.309Z,13.14
2017-10-29T08:10:51.620Z,13.16
2017-10-29T08:11:51.587Z,13.17
2017-10-29T08:12:51.250Z,13.13
2017-10-29T08:13:51.541Z,13.19
2017-10-29T08:14:51.534Z,13.16
2017-10-29T08:15:51.498Z,13.06
2017-10-29T08:16:51.466Z,12.76
2017-10-29T08:17:51.457Z,12.51
2017-10-29T08:18:51.430Z,12.55
2017-10-29T08:19:51.407Z,12.55
2017-10-29T08:20:51.384Z,12.66
2017-10-29T08:21:51.362Z,12.81
2017-10-29T08:22:51.341Z,12.89
2017-10-29T08:23:51.326Z,12.96
2017-10-29T08:24:51.299Z,13.06
2017-10-29T08:25:51.285Z,13.06
2017-10-29T08:26:51.264Z,12.87
2017-10-29T08:27:51.241Z,12.79
2017-10-29T08:28:51.213Z,12.59
2017-10-29T08:29:51.199Z,12.52
2017-10-29T08:30:51.177Z,12.55
2017-10-29T08:31:51.151Z,12.49
2017-10-29T08:32:51.125Z,12.43
2017-10-29T08:33:51.103Z,12.44
2017-10-29T08:34:51.083Z,12.44
2017-10-29T08:35:51.061Z,12.49
2017-10-29T08:36:51.034Z,12.56
2017-10-29T08:37:51.012Z,12.43
2017-10-29T08:38:50.995Z,12.38
2017-10-29T08:39:50.972Z,12.38
2017-10-29T08:40:50.942Z,12.33
2017-10-29T08:41:50.926Z,12.36
2017-10-29T08:42:50.902Z,12.31
2017-10-29T08:43:50.881Z,12.37
2017-10-29T08:44:50.852Z,12.26
2017-10-29T08:45:50.520Z,12.22
2017-10-29T08:46:50.914Z,12.19
2017-10-29T08:47:50.789Z,12.18
2017-10-29T08:48:50.771Z,12.16
2017-10-29T08:49:50.742Z,12.08
2017-10-29T08:50:50.737Z,12.08
2017-10-29T08:51:50.697Z,12.15
2017-10-29T08:52:50.672Z,12.25
2017-10-29T08:53:50.656Z,12.26
2017-10-29T08:54:50.634Z,12.23
2017-10-29T08:55:50.613Z,12.3
2017-10-29T08:56:50.270Z,12.41
2017-10-29T08:57:50.250Z,12.59
2017-10-29T08:58:50.231Z,12.7
2017-10-29T08:59:50.521Z,12.77
2017-10-29T09:00:50.507Z,12.81
2017-10-29T09:01:50.167Z,12.85
2017-10-29T09:02:50.454Z,12.91
2017-10-29T09:03:50.441Z,12.91
2017-10-29T09:04:50.089Z,12.84
2017-10-29T09:05:50.401Z,12.71
2017-10-29T09:06:50.363Z,12.52
2017-10-29T09:07:50.337Z,12.33
2017-10-29T09:08:50.322Z,12.16
2017-10-29T09:09:50.303Z,12.08
2017-10-29T09:10:50.281Z,12
2017-10-29T09:11:50.257Z,11.9
2017-10-29T09:12:50.591Z,11.82
2017-10-29T09:13:50.214Z,11.79
2017-10-29T09:14:50.182Z,11.72
2017-10-29T09:15:50.180Z,11.62
2017-10-29T09:16:50.135Z,11.6
2017-10-29T09:17:50.149Z,11.63
2017-10-29T09:18:50.091Z,11.57
2017-10-29T09:19:50.075Z,11.57
2017-10-29T09:20:49.737Z,11.72
2017-10-29T09:21:50.029Z,11.72
2017-10-29T09:22:50.038Z,11.78
2017-10-29T09:23:49.985Z,11.69
2017-10-29T09:24:50.303Z,11.72
2017-10-29T09:25:49.639Z,11.82
2017-10-29T09:26:49.914Z,11.97
2017-10-29T09:27:49.571Z,11.98
2017-10-29T09:28:49.863Z,12.04
2017-10-29T09:29:49.850Z,12.15
2017-10-29T09:30:49.826Z,12.23
2017-10-29T09:31:49.793Z,12.34
2017-10-29T09:32:49.790Z,12.36
2017-10-29T09:33:49.437Z,12.43
2017-10-29T09:34:49.727Z,12.34
2017-10-29T09:35:49.716Z,12.25
2017-10-29T09:36:49.720Z,12.23
2017-10-29T09:37:49.666Z,12.11
2017-10-29T09:38:49.643Z,12.07
2017-10-29T09:39:49.624Z,12.08
2017-10-29T09:40:49.594Z,12.11
2017-10-29T09:41:49.571Z,12.11
2017-10-29T09:42:49.554Z,12.01
2017-10-29T09:43:49.524Z,12.01
2017-10-29T09:44:49.502Z,11.98
2017-10-29T09:45:49.496Z,11.96
2017-10-29T09:46:49.449Z,12.01
2017-10-29T09:47:49.431Z,11.93
2017-10-29T09:48:49.414Z,11.88
2017-10-29T09:49:49.401Z,11.96
2017-10-29T09:50:49.370Z,11.88
2017-10-29T09:51:49.349Z,11.96
2017-10-29T09:52:49.315Z,11.87
2017-10-29T09:53:49.295Z,11.85
2017-10-29T09:54:49.299Z,11.96
2017-10-29T09:55:49.250Z,11.96
2017-10-29T09:56:49.234Z,11.88
2017-10-29T09:57:49.205Z,11.94
2017-10-29T09:58:49.187Z,11.96
2017-10-29T09:59:49.179Z,11.98
2017-10-29T10:00:48.819Z,11.94
2017-10-29T10:01:49.123Z,12
2017-10-29T10:02:49.102Z,12
2017-10-29T10:03:49.070Z,12.05
2017-10-29T10:04:48.728Z,12.05
2017-10-29T10:05:48.711Z,12.11
2017-10-29T10:06:48.997Z,12.07
2017-10-29T10:07:48.991Z,12.21
2017-10-29T10:08:48.968Z,12.3
2017-10-29T10:09:48.933Z,12.36
2017-10-29T10:10:48.910Z,12.34
2017-10-29T10:11:48.893Z,12.33
2017-10-29T10:12:48.557Z,12.33
2017-10-29T10:13:48.868Z,12.25
2017-10-29T10:14:48.837Z,12.13
2017-10-29T10:15:48.798Z,12.12
2017-10-29T10:16:48.772Z,12.07
2017-10-29T10:17:48.773Z,12.12
2017-10-29T10:18:48.412Z,12.12
2017-10-29T10:19:48.715Z,12.11
2017-10-29T10:20:48.361Z,12.07
2017-10-29T10:21:48.660Z,12.07
2017-10-29T10:22:48.366Z,12.15
2017-10-29T10:23:48.618Z,12.08
2017-10-29T10:24:48.596Z,12.04
2017-10-29T10:25:48.565Z,12.03
2017-10-29T10:26:48.232Z,11.97
2017-10-29T10:27:48.533Z,11.82
2017-10-29T10:28:48.189Z,11.87
2017-10-29T10:29:48.157Z,11.81
2017-10-29T10:30:48.452Z,11.79
2017-10-29T10:31:48.436Z,11.74
2017-10-29T10:32:48.413Z,11.81
2017-10-29T10:33:48.395Z,11.75
2017-10-29T10:34:48.384Z,11.69
2017-10-29T10:35:48.333Z,11.63
2017-10-29T10:36:48.318Z,11.62
2017-10-29T10:37:48.295Z,11.56
2017-10-29T10:38:48.271Z,11.49
2017-10-29T10:39:47.921Z,11.46
2017-10-29T10:40:48.226Z,11.46
2017-10-29T10:41:47.885Z,11.46
2017-10-29T10:42:47.866Z,11.57
2017-10-29T10:43:48.150Z,11.46
2017-10-29T10:44:48.142Z,11.53
2017-10-29T10:45:48.119Z,11.62
2017-10-29T10:46:48.097Z,11.56
2017-10-29T10:47:48.097Z,11.69
2017-10-29T10:48:48.055Z,11.72
2017-10-29T10:49:48.020Z,11.69
2017-10-29T10:50:47.999Z,11.82
2017-10-29T10:51:47.971Z,11.81
2017-10-29T10:52:47.952Z,11.93
2017-10-29T10:53:47.923Z,12.13
2017-10-29T10:54:47.907Z,12.11
2017-10-29T10:55:47.880Z,12.15
2017-10-29T10:57:02.462Z,12.16
2017-10-29T10:57:47.834Z,12.19
2017-10-29T10:58:47.813Z,12.16
2017-10-29T10:59:47.786Z,12.15
2017-10-29T11:00:47.768Z,12
2017-10-29T11:01:47.419Z,12.07
2017-10-29T11:02:47.408Z,12.03
2017-10-29T11:03:47.697Z,12.01
2017-10-29T11:04:47.676Z,12.07
2017-10-29T11:05:47.661Z,12.11
2017-10-29T11:06:47.637Z,12.07
2017-10-29T11:07:47.292Z,12.05
2017-10-29T11:08:47.592Z,12.07
2017-10-29T11:09:47.242Z,12.08
2017-10-29T11:10:47.544Z,12.13
2017-10-29T11:11:47.515Z,12.11
2017-10-29T11:12:47.841Z,12.12
2017-10-29T11:13:47.469Z,12.15
2017-10-29T11:14:47.445Z,12.23
2017-10-29T11:15:47.426Z,12.18
2017-10-29T11:16:47.399Z,12.18
2017-10-29T11:17:47.384Z,12.23
2017-10-29T11:18:47.361Z,12.29
2017-10-29T11:19:47.338Z,12.31
2017-10-29T11:20:47.308Z,12.36
2017-10-29T11:21:47.277Z,12.25
2017-10-29T11:22:47.256Z,12.31
2017-10-29T11:24:01.843Z,12.38
2017-10-29T11:24:47.230Z,12.43
2017-10-29T11:25:47.193Z,12.54
2017-10-29T11:26:47.177Z,12.52
2017-10-29T11:27:47.150Z,12.48
2017-10-29T11:29:47.123Z,12.59
2017-10-29T11:30:47.090Z,12.54
2017-10-29T11:31:46.744Z,12.43
2017-10-29T11:32:47.040Z,12.34
2017-10-29T11:33:47.014Z,12.46
2017-10-29T11:34:46.989Z,12.48
2017-10-29T11:35:46.973Z,12.51
2017-10-29T11:36:46.950Z,12.56
2017-10-29T11:37:46.921Z,12.46
2017-10-29T11:38:46.899Z,12.31
2017-10-29T11:39:46.888Z,12.12
2017-10-29T11:40:46.854Z,11.93
2017-10-29T11:41:46.832Z,11.6
2017-10-29T11:42:46.822Z,11.23
2017-10-29T11:43:46.470Z,10.87
2017-10-29T11:44:46.780Z,10.52
2017-10-29T11:45:46.739Z,10.25
2017-10-29T11:46:46.718Z,10.06
2017-10-29T11:47:46.691Z,9.89
2017-10-29T11:48:46.678Z,9.68
2017-10-29T11:49:46.694Z,9.56
2017-10-29T11:50:46.634Z,9.5
2017-10-29T11:51:46.604Z,9.41
2017-10-29T11:52:46.575Z,9.41
2017-10-29T11:53:46.249Z,9.41
2017-10-29T11:54:46.214Z,9.45
2017-10-29T11:55:46.510Z,9.4
2017-10-29T11:56:46.486Z,9.41
2017-10-29T11:57:46.461Z,9.41
2017-10-29T11:58:46.115Z,9.5
2017-10-29T11:59:46.415Z,9.55
2017-10-29T12:00:46.408Z,9.56
2017-10-29T12:01:46.369Z,9.67
2017-10-29T12:02:46.347Z,9.77
2017-10-29T12:03:46.316Z,9.8
2017-10-29T12:04:46.307Z,9.85
2017-10-29T12:05:46.291Z,9.91
2017-10-29T12:06:46.244Z,9.96
2017-10-29T12:07:46.220Z,10.09
2017-10-29T12:08:46.222Z,10.07
2017-10-29T12:09:45.867Z,10.17
2017-10-29T12:10:46.159Z,10.24
2017-10-29T12:11:46.141Z,10.35
2017-10-29T12:12:46.122Z,10.39
2017-10-29T12:13:46.113Z,10.46
2017-10-29T12:14:46.053Z,10.6
2017-10-29T12:15:46.035Z,10.63
2017-10-29T12:16:46.002Z,10.69
2017-10-29T12:17:45.984Z,10.68
2017-10-29T12:18:45.965Z,10.87
2017-10-29T12:19:45.930Z,10.76
2017-10-29T12:20:45.927Z,10.86
2017-10-29T12:21:45.889Z,10.93
2017-10-29T12:22:45.868Z,10.94
2017-10-29T12:23:45.840Z,11.02
2017-10-29T12:24:45.833Z,11.01
2017-10-29T12:25:45.800Z,10.99
2017-10-29T12:26:45.774Z,11.08
2017-10-29T12:27:45.756Z,10.98
2017-10-29T12:28:45.728Z,10.88
2017-10-29T12:29:45.702Z,11.02
2017-10-29T12:30:45.360Z,10.93
2017-10-29T12:31:45.663Z,10.93
2017-10-29T12:32:45.632Z,10.94
2017-10-29T12:33:44.975Z,10.94
2017-10-29T12:34:45.596Z,11.01
2017-10-29T12:35:45.243Z,10.95
2017-10-29T12:36:45.538Z,11.02
2017-10-29T12:37:45.532Z,11.01
2017-10-29T12:38:45.488Z,10.99
2017-10-29T12:39:45.462Z,11.01
2017-10-29T12:40:45.447Z,11.06
2017-10-29T12:41:45.440Z,11.02
2017-10-29T12:42:45.388Z,11.12
2017-10-29T12:43:45.369Z,11.2
2017-10-29T12:44:45.353Z,11.21
2017-10-29T12:45:45.339Z,11.31
2017-10-29T12:46:45.304Z,11.26
2017-10-29T12:47:45.293Z,11.35
2017-10-29T12:48:45.266Z,11.28
2017-10-29T12:49:45.224Z,11.28
2017-10-29T12:50:45.211Z,11.24
2017-10-29T12:51:45.217Z,11.36
2017-10-29T12:52:45.157Z,11.27
2017-10-29T12:53:45.142Z,11.39
2017-10-29T12:54:45.124Z,11.33
2017-10-29T12:55:45.091Z,11.39
2017-10-29T12:56:45.076Z,11.42
2017-10-29T12:57:45.048Z,11.38
2017-10-29T12:58:45.014Z,11.38
2017-10-29T12:59:44.999Z,11.45